MET'MAP v2.0
soon released !

Expected late october,
this new version will be
more efficient, smarter,
and hosted on a brand new
server x3 powerfull...
...and still free !


Not compatible ?
Try the mobile version !

LOG IN : | Subscribe | Disclaimer | Who is Orbifly ? |
ICAO code :

TAF - LBPD Plovdiv - 19 Feb 2020 20:01 UTC - Data Source NOAA   


- Airport Elevation : 597 ft
- IATA code : PDV
- No reported NOTAMs.


LBPD - Plovdiv

Latest METAR recorded : 2015/08/11 08:00 LBPD 110800Z AUTO 29011KT 9999 NCD 31/11 Q1012 NOSIG
TAF TAF LBPD
Valid from the 19 at 18:00 until the 20 at 18:00 UTC


191700Z 1918/2018 08008KT 9999 SCT030 BKN050
TEMPO 1919/1923 RA SCT020 OVC040
TEMPO 1923/2009 5000 RA BKN015 OVC030
PROB40 2003/2007 3000 RA BKN010 OVC020
BECMG 2009/2011 28010KT
TEMPO 2012/2015 5000 SHRA FEW025CB BKN040

Source NOAA


MET'MAP, your aeronautical weather chart ! - Copyright ORBIFLY December 2007

Programming & Development : Alexandra Zaïnal
Co-Developer : Marc-Olivier Méhu
Technical & hardware support : Manuel Goepfert
Concept & Financing : Baudouin d'Aumeries